Megargel, AL (36457)

6:31 PM CST on February 14, 2016 (GMT -0600)
APRSWXNET | | Change Station
CLOSE
Current Station
Personal Weather Station
Location: Perdue Hill, AL
Elevation: 429 ft
Nearby Weather Stations

Elev 429 ft 31.53 °N, 87.32 °W | Updated 32 minutes ago

Overcast
Overcast
56 °F
Feels Like 56 °F
N
5
Wind Variable Wind from North
Gusts 11.0 mph

Today
High -- | Low -- °F
--% Chance of Precip.
Yesterday
High -- | Low -- °F
Precip. -- in
Pressure 30.18 in
Visibility 10.0 miles
Clouds Clear
Dew Point 41 °F
Humidity 58%
Rainfall in
Snow Depth Not available.
6:32 AM 5:35 PM
Waxing Crescent, 47% visible
METAR KGZH 142353Z AUTO 20007KT 10SM CLR 12/01 A3018 RMK AO2 SLP220 60000 T01220006 10172 20122 53005
Pressure 30.18 in
Visibility 10.0 miles
Clouds Clear
Dew Point 41 °F
Humidity 58%
Rainfall in
Snow Depth Not available.
6:32 AM 5:35 PM
Waxing Crescent, 47% visible
METAR KGZH 142353Z AUTO 20007KT 10SM CLR 12/01 A3018 RMK AO2 SLP220 60000 T01220006 10172 20122 53005

10-Day Weather Forecast

Almanac

Astronomy

Feb. 14, 2016 Rise Set
Actual Time
Civil Twilight
Nautical Twilight
Astronomical Twilight
Moon
Length of Visible Light
Length of Day
Tomorrow will be .
, % of the Moon is Illuminated

Today's Extremes

State Highs State Lows

Community

WunderPhotos

Upload Photos

1,892,950 photos uploaded!

WunderBlog® & News

Nearby

Air Quality

  Air Quality AQ Index Pollutant
Not available.

Snow Depth

Station Depth Elevation

Earthquake Activity

City Distance Mag. Time & Date
Minimum magnitude displayed is 2.5.

Coastal Water Temperatures

Place Temperature

Stations

Nearby Weather Stations

Station Location Temp. Windchill Dew Point Humidity Wind Precip. Elev Updated Type
                   

Watches & Warnings

There are currently no watches in effect.